Hauptseite
METAR-TAF:

METAR-TAF

Flughäfen :

Remada, Tunesien

Breite: 32-19N, Länge: 010-24E, Höhe: 300 m

Beobachtung

Neuester Wetterbericht von vor 16 Minuten, um 09:00 UTC
Wind 6 kt aus West/Südwest, variierte zwischen Süd/Südwest und West/Nordwest
Temperatur 18°C
Luftfeuchtigkeit 22%
Luftdruck 1024 hPa
Sichtweite 10 km oder mehr
keine Wolken unter 1500 m und keine Kumulonimbus oder Gewitterwolken

METAR: DTTD 240900Z 25006KT 200V290 CAVOK 18/M04 Q1024

Zeit: 10:16 (09:16 UTC)


TAF: fehlend

Wetterbeobachtungen und Prognosen von mehr als 4000 Flughäfen (METAR und TAF Bericht).

Die verfügbaren Stationen werden durch gelbe und rote Markierungen auf der Karte dargestellt.

Führen Sie die Maus auf sie, um den Namen der Station zu sehen.

Darauf klicken, um die Beobachtung von Wetterbeobachtungen und Prognosen zu sehen.

Um die Karte zu ändern : klicken Sie auf den grünen Tasten mit einem schwarzen Kreuz Zum Vergrößern, auf den grünen Button mit einem Gedankenstrich zu verkleinern, oder auf die grünen Pfeile für benachbarte Karten.


METAR-TAF: